KWWR/WWR METAR and TAF weather

Enter ICAO airport designator
Station Type Date Time Source
KWWR METAR 2021/08/02 02:10 UTC NOAA

KWWR 020210Z AUTO 00000KT 10SM CLR 22/18 A3021 RMK AO2


Station Type Date Time Source
KWWR Decoded METAR 2021/08/02 02:10 UTC NOAA

Woodward, West Woodward Airport, OK, United States (KWWR) 36-26-12N 099-31-16W 667M
Aug 01, 2021 - 10:10 PM EDT / 2021.08.02 0210 UTC
Wind: Calm:0
Visibility: 10 mile(s):0
Sky conditions: clear
Temperature: 71 F (22 C)
Dew Point: 64 F (18 C)
Relative Humidity: 78%
Pressure (altimeter): 30.21 in. Hg (1023 hPa)
ob: KWWR 020210Z AUTO 00000KT 10SM CLR 22/18 A3021 RMK AO2
cycle: 2

Station Type Date Time Source
KWWR TAF 2021/08/01 19:06 UTC NOAA

TAF
AMD KWWR 011905Z 0119/0218 03012KT P6SM SCT025 BKN070
FM012300 03003KT P6SM SCT120

Example: see airport list